Time;durP1;ratioP1;P1;durP2;ratioP2;P2;SDS_P1;SDS_P2;PMS_P1;PMS_P2;Temp;Humidity;BMP_temperature;BMP_pressure;BME280_temperature;BME280_humidity;BME280_pressure;Samples;Min_cycle;Max_cycle;Signal;HPM_P1;HPM_P2
2021/07/03 00:00:11;;;;;;;2.72;1.70;;;;;;;13.08;100.00;92687.13;1802417;79;21042;-77
2021/07/03 00:02:37;;;;;;;2.17;1.77;;;;;;;13.08;100.00;92685.77;1802838;79;21102;-78
2021/07/03 00:05:05;;;;;;;2.60;1.47;;;;;;;13.05;100.00;92683.89;1794403;79;21042;-79
2021/07/03 00:07:32;;;;;;;2.72;1.87;;;;;;;13.03;100.00;92686.30;1780370;80;21109;-80
2021/07/03 00:09:58;;;;;;;2.02;1.82;;;;;;;13.03;100.00;92686.30;1777054;79;21078;-83
2021/07/03 00:12:25;;;;;;;2.50;1.90;;;;;;;13.01;100.00;92684.58;1799353;79;21000;-82
2021/07/03 00:14:52;;;;;;;1.60;1.40;;;;;;;13.02;100.00;92686.13;1780368;80;20944;-81
2021/07/03 00:17:19;;;;;;;5.78;2.10;;;;;;;13.04;100.00;92682.36;1797465;79;21021;-81
2021/07/03 00:19:48;;;;;;;1.70;1.60;;;;;;;13.07;100.00;92685.00;1769274;79;21006;-78
2021/07/03 00:22:14;;;;;;;2.05;1.70;;;;;;;13.06;100.00;92684.84;1756197;81;21002;-78
2021/07/03 00:24:41;;;;;;;3.40;1.67;;;;;;;13.09;100.00;92689.45;1813064;79;21021;-77
2021/07/03 00:27:07;;;;;;;1.95;1.20;;;;;;;13.07;100.00;92685.61;1812987;79;21799;-76
2021/07/03 00:29:33;;;;;;;2.30;2.10;;;;;;;13.04;100.00;92676.91;1813211;78;21045;-78
2021/07/03 00:32:01;;;;;;;3.08;1.80;;;;;;;13.01;100.00;92679.13;1813089;79;21548;-79
2021/07/03 00:34:27;;;;;;;4.42;2.55;;;;;;;13.03;100.00;92670.69;1813175;79;21631;-77
2021/07/03 00:36:54;;;;;;;3.35;2.37;;;;;;;13.11;100.00;92679.45;1811482;79;21418;-76
2021/07/03 00:39:20;;;;;;;2.40;2.20;;;;;;;13.16;100.00;92689.09;1812847;79;21100;-76
2021/07/03 00:41:46;;;;;;;3.75;2.58;;;;;;;13.19;100.00;92683.54;1811393;79;21091;-80
2021/07/03 00:44:22;;;;;;;3.08;2.70;;;;;;;13.17;100.00;92687.31;1803980;79;21588;-78
2021/07/03 00:46:48;;;;;;;7.87;2.67;;;;;;;13.11;100.00;92691.14;1816279;77;20927;-78
2021/07/03 00:49:15;;;;;;;3.02;2.58;;;;;;;13.08;100.00;92691.99;1842090;77;21026;-77
2021/07/03 00:51:42;;;;;;;4.55;3.05;;;;;;;13.05;100.00;92690.72;1840016;77;21014;-79
2021/07/03 00:54:09;;;;;;;2.55;2.10;;;;;;;13.01;100.00;92693.56;1840105;77;21109;-78
2021/07/03 00:56:37;;;;;;;2.98;1.90;;;;;;;12.98;100.00;92695.01;1839153;77;21088;-79
2021/07/03 00:59:03;;;;;;;2.17;1.30;;;;;;;12.92;100.00;92683.06;1839100;77;21030;-79
2021/07/03 01:01:30;;;;;;;1.98;1.47;;;;;;;12.88;100.00;92686.64;1838436;77;21029;-80
2021/07/03 01:03:56;;;;;;;5.67;4.42;;;;;;;12.89;100.00;92696.95;1838861;77;21092;-76
2021/07/03 01:06:26;;;;;;;2.75;1.50;;;;;;;12.88;100.00;92689.37;1841153;77;21026;-79
2021/07/03 01:08:53;;;;;;;1.87;1.30;;;;;;;12.94;100.00;92692.37;1841102;77;21513;-78
2021/07/03 01:11:29;;;;;;;4.53;3.47;;;;;;;12.98;100.00;92684.09;1842324;77;21002;-79
2021/07/03 01:13:56;;;;;;;3.37;2.80;;;;;;;12.97;100.00;92678.45;1848229;77;21018;-79
2021/07/03 01:16:23;;;;;;;11.97;4.85;;;;;;;12.96;100.00;92680.41;1840285;77;20967;-78
2021/07/03 01:18:50;;;;;;;2.20;2.00;;;;;;;12.94;100.00;92673.27;1841123;77;21026;-79
2021/07/03 01:21:16;;;;;;;2.92;2.05;;;;;;;12.92;100.00;92672.91;1839509;77;21751;-79
2021/07/03 01:23:43;;;;;;;2.15;1.95;;;;;;;12.97;100.00;92671.63;1840823;77;21242;-78
2021/07/03 01:26:10;;;;;;;2.02;1.17;;;;;;;12.99;100.00;92668.64;1839060;77;21073;-79
2021/07/03 01:28:38;;;;;;;1.00;0.95;;;;;;;12.92;100.00;92664.73;1838105;77;21037;-80
2021/07/03 01:31:05;;;;;;;0.93;0.85;;;;;;;12.85;100.00;92660.20;1839175;77;21566;-79
2021/07/03 01:33:33;;;;;;;1.10;1.00;;;;;;;12.78;100.00;92655.52;1839580;77;21607;-78
2021/07/03 01:36:00;;;;;;;1.00;1.00;;;;;;;12.68;100.00;92665.52;1840781;77;21010;-79
2021/07/03 01:38:27;;;;;;;1.67;0.80;;;;;;;12.58;100.00;92661.08;1843469;77;21002;-78
2021/07/03 01:40:56;;;;;;;1.15;0.98;;;;;;;12.55;100.00;92662.69;1788458;80;20993;-80
2021/07/03 01:43:27;;;;;;;2.12;0.95;;;;;;;12.56;100.00;92664.23;1847822;77;21628;-77
2021/07/03 01:48:28;;;;;;;1.27;1.15;;;;;;;12.64;100.00;92653.33;1815854;77;22107;-79
2021/07/03 01:50:56;;;;;;;1.10;0.78;;;;;;;12.70;100.00;92646.75;1840465;77;21010;-80
2021/07/03 01:53:23;;;;;;;2.05;1.45;;;;;;;12.67;100.00;92647.59;1840072;77;21652;-80
2021/07/03 01:55:50;;;;;;;1.20;1.05;;;;;;;12.67;100.00;92649.56;1839436;77;21037;-79
2021/07/03 01:58:22;;;;;;;1.70;0.90;;;;;;;12.68;100.00;92644.30;1816034;77;22432;-79
2021/07/03 02:00:54;;;;;;;1.55;1.15;;;;;;;12.66;100.00;92652.89;1840303;77;21081;-79
2021/07/03 02:03:21;;;;;;;0.82;0.82;;;;;;;12.68;100.00;92648.39;1842901;77;21081;-79
2021/07/03 02:05:48;;;;;;;1.35;0.98;;;;;;;12.70;100.00;92652.20;1841006;77;21081;-78
2021/07/03 02:08:17;;;;;;;0.90;0.50;;;;;;;12.74;100.00;92644.70;1840774;77;21030;-76
2021/07/03 02:10:45;;;;;;;0.82;0.80;;;;;;;12.78;100.00;92645.37;1840424;77;22218;-78
2021/07/03 02:13:12;;;;;;;0.80;0.80;;;;;;;12.77;100.00;92644.45;1840713;77;21049;-79
2021/07/03 02:15:38;;;;;;;0.78;0.75;;;;;;;12.77;100.00;92646.58;1816864;77;21531;-79
2021/07/03 02:18:08;;;;;;;1.10;0.80;;;;;;;12.80;100.00;92644.36;1840523;77;21494;-79
2021/07/03 02:20:36;;;;;;;0.70;0.70;;;;;;;12.82;100.00;92649.38;1841035;77;21026;-79
2021/07/03 02:23:10;;;;;;;3.85;1.82;;;;;;;12.83;100.00;92650.33;1838271;77;21170;-80
2021/07/03 02:25:39;;;;;;;3.47;2.77;;;;;;;12.84;100.00;92649.13;1840962;77;21069;-78
2021/07/03 02:30:36;;;;;;;2.83;1.20;;;;;;;12.91;100.00;92646.83;1841557;77;21030;-80
2021/07/03 02:33:04;;;;;;;0.93;0.88;;;;;;;12.91;100.00;92646.06;1839917;77;21045;-79
2021/07/03 02:35:30;;;;;;;1.27;1.17;;;;;;;12.87;100.00;92647.52;1838990;77;21473;-78
2021/07/03 02:37:57;;;;;;;1.57;1.27;;;;;;;12.78;100.00;92646.73;1840823;77;21304;-79
2021/07/03 02:40:24;;;;;;;1.32;1.22;;;;;;;12.77;100.00;92643.84;1840624;77;21006;-79
2021/07/03 02:42:52;;;;;;;1.10;1.00;;;;;;;12.82;100.00;92643.32;1841999;77;21030;-78
2021/07/03 02:45:19;;;;;;;2.40;0.93;;;;;;;12.86;100.00;92639.94;1840121;77;21013;-77
2021/07/03 02:47:46;;;;;;;9.48;1.95;;;;;;;12.89;100.00;92643.15;1839411;77;21212;-79
2021/07/03 02:50:17;;;;;;;2.20;0.90;;;;;;;12.87;100.00;92640.09;1840809;77;21567;-79
2021/07/03 02:52:45;;;;;;;0.57;0.57;;;;;;;12.81;100.00;92632.25;1843364;77;20987;-79
2021/07/03 02:55:13;;;;;;;0.60;0.60;;;;;;;12.79;100.00;92633.29;1844253;77;21025;-78
2021/07/03 02:57:40;;;;;;;2.35;1.52;;;;;;;12.77;100.00;92628.84;1840739;77;21077;-78
2021/07/03 03:00:09;;;;;;;0.70;0.60;;;;;;;12.79;100.00;92625.70;1840531;77;21877;-77
2021/07/03 03:02:36;;;;;;;1.00;1.00;;;;;;;12.79;100.00;92634.66;1841685;77;21026;-79
2021/07/03 03:05:07;;;;;;;3.67;0.80;;;;;;;12.76;100.00;92638.23;1840628;77;21981;-77
2021/07/03 03:07:36;;;;;;;1.92;0.75;;;;;;;12.73;100.00;92640.44;1841579;77;21639;-80
2021/07/03 03:10:05;;;;;;;1.70;0.90;;;;;;;12.71;100.00;92634.64;1840550;77;21552;-78
2021/07/03 03:12:32;;;;;;;1.27;1.17;;;;;;;12.70;100.00;92634.47;1840588;77;22198;-80
2021/07/03 03:14:59;;;;;;;2.25;1.10;;;;;;;12.68;100.00;92631.42;1840346;77;21030;-78
2021/07/03 03:17:26;;;;;;;3.00;1.90;;;;;;;12.69;100.00;92637.04;1842148;77;20982;-80
2021/07/03 03:19:56;;;;;;;2.62;1.10;;;;;;;12.70;100.00;92637.80;1845289;77;20967;-80
2021/07/03 03:22:23;;;;;;;1.40;1.30;;;;;;;12.74;100.00;92638.48;1842345;77;21026;-79
2021/07/03 03:24:49;;;;;;;2.60;1.40;;;;;;;12.77;100.00;92637.63;1816150;77;21196;-79
2021/07/03 03:27:17;;;;;;;2.50;1.30;;;;;;;12.76;100.00;92642.92;1841422;77;21029;-77
2021/07/03 03:29:45;;;;;;;0.80;0.72;;;;;;;12.76;100.00;92638.23;1815577;79;21249;-77
2021/07/03 03:32:12;;;;;;;1.27;1.17;;;;;;;12.74;100.00;92634.39;1840697;77;20994;-78
2021/07/03 03:34:39;;;;;;;2.90;1.15;;;;;;;12.69;100.00;92638.41;1840058;77;21013;-79
2021/07/03 03:37:07;;;;;;;1.27;0.90;;;;;;;12.75;100.00;92640.80;1840602;77;21226;-79
2021/07/03 03:39:35;;;;;;;2.27;1.35;;;;;;;12.81;100.00;92641.03;1819152;77;21029;-80
2021/07/03 03:42:03;;;;;;;2.77;1.55;;;;;;;12.82;100.00;92639.83;1796593;78;21053;-79
2021/07/03 03:44:31;;;;;;;1.82;1.17;;;;;;;12.85;100.00;92641.70;1786745;80;21342;-79
2021/07/03 03:46:59;;;;;;;3.40;1.70;;;;;;;12.85;100.00;92637.62;1814547;77;21069;-78
2021/07/03 03:49:27;;;;;;;3.33;2.10;;;;;;;12.79;100.00;92637.98;1839571;77;21828;-78
2021/07/03 03:51:55;;;;;;;1.52;1.05;;;;;;;12.70;100.00;92635.07;1783950;79;21625;-78
2021/07/03 03:54:24;;;;;;;1.57;1.10;;;;;;;12.71;100.00;92633.88;1778178;79;21049;-77
2021/07/03 03:57:21;;;;;;;1.45;0.72;;;;;;;12.67;100.00;92637.28;1806068;79;21610;-80
2021/07/03 03:59:22;;;;;;;0.62;0.62;;;;;;;12.61;100.00;92637.81;1776997;79;21085;-79
2021/07/03 04:01:49;;;;;;;1.35;0.70;;;;;;;12.60;100.00;92647.19;1809132;79;22248;-79
2021/07/03 04:04:17;;;;;;;2.37;1.00;;;;;;;12.65;100.00;92636.36;1782819;79;21022;-80
2021/07/03 04:06:44;;;;;;;2.00;1.90;;;;;;;12.72;100.00;92638.16;1741131;80;21065;-79
2021/07/03 04:09:12;;;;;;;5.30;1.40;;;;;;;12.80;100.00;92640.27;1771957;80;21035;-77
2021/07/03 04:11:38;;;;;;;1.20;1.10;;;;;;;12.82;100.00;92642.56;1722702;82;21137;-78
2021/07/03 04:14:06;;;;;;;2.55;0.85;;;;;;;12.86;100.00;92636.41;1745925;80;22435;-78
2021/07/03 04:16:32;;;;;;;1.65;1.00;;;;;;;12.90;100.00;92638.48;1737725;80;21087;-78
2021/07/03 04:19:00;;;;;;;1.27;0.80;;;;;;;12.95;100.00;92638.55;1715482;83;21034;-77
2021/07/03 04:21:27;;;;;;;1.10;1.00;;;;;;;12.96;100.00;92638.72;1728047;82;21293;-77
2021/07/03 04:23:54;;;;;;;0.80;0.62;;;;;;;13.00;100.00;92638.03;1718653;81;21073;-80
2021/07/03 04:26:20;;;;;;;2.10;0.80;;;;;;;13.00;100.00;92640.76;1724351;81;21478;-80
2021/07/03 04:28:47;;;;;;;0.93;0.72;;;;;;;12.88;100.00;92641.62;1777172;80;20984;-79
2021/07/03 04:31:13;;;;;;;1.15;0.60;;;;;;;12.79;100.00;92642.08;1763254;80;21318;-78
2021/07/03 04:33:40;;;;;;;0.60;0.60;;;;;;;12.78;100.00;92642.65;1745913;82;21560;-76
2021/07/03 04:36:07;;;;;;;1.12;1.02;;;;;;;12.83;100.00;92638.05;1780662;80;21022;-80
2021/07/03 04:38:33;;;;;;;2.30;2.10;;;;;;;12.88;100.00;92640.26;1730162;82;21297;-79
2021/07/03 04:41:01;;;;;;;3.08;2.27;;;;;;;12.93;100.00;92636.23;1791202;79;21084;-79
2021/07/03 04:43:29;;;;;;;2.10;1.90;;;;;;;12.96;100.00;92631.89;1770756;79;21097;-80
2021/07/03 04:45:56;;;;;;;2.67;2.47;;;;;;;12.94;100.00;92630.18;1743412;82;21050;-77
2021/07/03 04:48:23;;;;;;;4.87;4.42;;;;;;;12.90;100.00;92631.66;1748923;80;21033;-80
2021/07/03 04:50:51;;;;;;;20.72;9.50;;;;;;;12.93;100.00;92630.78;1776230;80;21105;-81
2021/07/03 04:53:17;;;;;;;27.07;13.03;;;;;;;12.99;100.00;92629.67;1747620;80;21590;-77
2021/07/03 04:55:45;;;;;;;22.05;11.95;;;;;;;13.06;100.00;92626.77;1775015;80;21009;-80
2021/07/03 04:58:12;;;;;;;2.58;2.00;;;;;;;13.12;100.00;92635.95;1751438;80;21543;-79
2021/07/03 05:00:38;;;;;;;1.90;1.80;;;;;;;13.09;100.00;92632.73;1730743;81;21105;-78
2021/07/03 05:03:05;;;;;;;1.27;1.17;;;;;;;13.09;100.00;92630.77;1725432;77;21468;-80
2021/07/03 05:05:32;;;;;;;0.90;0.90;;;;;;;13.15;100.00;92637.83;1837169;78;21054;-80
2021/07/03 05:07:59;;;;;;;1.02;1.00;;;;;;;13.16;100.00;92634.49;1791857;78;21092;-81
2021/07/03 05:10:25;;;;;;;1.05;1.05;;;;;;;13.12;100.00;92638.08;1805118;78;21060;-80
2021/07/03 05:12:52;;;;;;;2.42;0.70;;;;;;;13.15;100.00;92639.80;1799425;78;21963;-79
2021/07/03 05:15:20;;;;;;;0.57;0.57;;;;;;;13.15;100.00;92639.80;1799756;79;21102;-80
2021/07/03 05:17:48;;;;;;;2.60;1.52;;;;;;;13.21;100.00;92638.08;1768375;81;21006;-81
2021/07/03 05:20:17;;;;;;;0.68;0.68;;;;;;;13.26;100.00;92643.80;1769447;81;21037;-81
2021/07/03 05:22:43;;;;;;;0.65;0.65;;;;;;;13.27;100.00;92642.59;1768043;81;21029;-78
2021/07/03 05:25:12;;;;;;;0.78;0.78;;;;;;;13.27;100.00;92645.33;1770918;81;20966;-81
2021/07/03 05:27:38;;;;;;;1.72;0.75;;;;;;;13.33;100.00;92648.31;1753847;78;21116;-83
2021/07/03 05:30:06;;;;;;;1.10;1.00;;;;;;;13.40;100.00;92650.09;1778791;80;21052;-81
2021/07/03 05:32:34;;;;;;;0.80;0.80;;;;;;;13.45;100.00;92651.69;1778262;80;21567;-80
2021/07/03 05:35:01;;;;;;;1.05;0.93;;;;;;;13.48;100.00;92650.83;1820739;77;21005;-80
2021/07/03 05:37:28;;;;;;;0.72;0.72;;;;;;;13.48;100.00;92652.80;1821738;77;21116;-80
2021/07/03 05:39:55;;;;;;;0.98;0.88;;;;;;;13.51;100.00;92645.87;1814204;76;21182;-81
2021/07/03 05:42:21;;;;;;;1.05;1.00;;;;;;;13.51;100.00;92647.23;1819251;76;21478;-82
2021/07/03 05:44:47;;;;;;;1.27;0.90;;;;;;;13.52;100.00;92652.09;1820492;78;21091;-82
2021/07/03 05:47:14;;;;;;;1.50;1.05;;;;;;;13.52;100.00;92643.91;1816633;78;21028;-79
2021/07/03 05:49:41;;;;;;;2.40;1.80;;;;;;;13.52;100.00;92652.09;1773015;78;21510;-78
2021/07/03 05:52:08;;;;;;;1.72;1.62;;;;;;;13.52;100.00;92651.49;1768085;79;21388;-80
2021/07/03 05:54:34;;;;;;;3.02;1.95;;;;;;;13.51;100.00;92655.43;1811366;77;21033;-79
2021/07/03 05:57:01;;;;;;;1.35;1.22;;;;;;;13.49;100.00;92653.72;1799385;79;21016;-79
2021/07/03 05:59:27;;;;;;;3.58;1.60;;;;;;;13.48;100.00;92654.16;1807961;78;21068;-81
2021/07/03 06:01:54;;;;;;;1.70;1.57;;;;;;;13.49;100.00;92655.08;1814925;77;21047;-79
2021/07/03 06:04:20;;;;;;;1.90;1.77;;;;;;;13.51;100.00;92654.67;1798403;78;21068;-80
2021/07/03 06:06:46;;;;;;;1.95;1.60;;;;;;;13.53;100.00;92655.75;1794602;78;21572;-79
2021/07/03 06:09:13;;;;;;;2.42;2.05;;;;;;;13.56;100.00;92665.05;1786539;77;21007;-81
2021/07/03 06:11:39;;;;;;;1.50;1.37;;;;;;;13.55;100.00;92661.56;1790894;77;21032;-79
2021/07/03 06:14:06;;;;;;;2.08;1.87;;;;;;;13.55;100.00;92660.80;1808260;77;21520;-79
2021/07/03 06:18:56;;;;;;;16.75;10.85;;;;;;;13.53;100.00;92656.35;1822681;77;22155;-80
2021/07/03 06:23:32;;;;;;;16.20;8.53;;;;;;;13.63;100.00;92657.27;1864495;74;28773;-80
2021/07/03 06:26:03;;;;;;;31.40;15.00;;;;;;;13.64;100.00;92659.56;1783120;76;20983;-78
2021/07/03 06:28:31;;;;;;;26.15;15.78;;;;;;;13.72;100.00;92659.52;1800120;77;21183;-80
2021/07/03 06:30:57;;;;;;;18.42;10.35;;;;;;;13.75;100.00;92658.66;1815971;77;21054;-79
2021/07/03 06:33:24;;;;;;;13.40;6.20;;;;;;;13.78;100.00;92661.90;1779006;78;21631;-76
2021/07/03 06:35:52;;;;;;;5.92;3.52;;;;;;;13.87;100.00;92656.39;1753738;79;21064;-79
2021/07/03 06:40:13;;;;;;;46.85;19.92;;;;;;;14.06;100.00;92656.20;1858366;76;22712;-78
2021/07/03 06:42:39;;;;;;;43.40;17.45;;;;;;;14.09;100.00;92663.53;1793496;77;21037;-77
2021/07/03 06:45:06;;;;;;;62.53;28.67;;;;;;;14.17;100.00;92662.73;1783174;78;21608;-79
2021/07/03 06:47:33;;;;;;;200.22;124.67;;;;;;;14.22;100.00;92659.47;1773835;79;21132;-79
2021/07/03 06:50:01;;;;;;;85.15;43.55;;;;;;;14.28;100.00;92657.70;1767102;77;21624;-79
2021/07/03 06:52:30;;;;;;;55.30;25.52;;;;;;;14.33;100.00;92657.78;1817128;77;21292;-80
2021/07/03 06:54:56;;;;;;;7.72;5.17;;;;;;;14.36;100.00;92656.13;1772614;77;21022;-82
2021/07/03 06:57:23;;;;;;;6.78;3.85;;;;;;;14.37;100.00;92654.34;1803592;77;21097;-83
2021/07/03 06:59:51;;;;;;;1.75;1.65;;;;;;;14.38;100.00;92649.02;1818869;77;21147;-81
2021/07/03 07:02:19;;;;;;;1.80;1.37;;;;;;;14.35;98.45;92654.00;1790683;77;21051;-81
2021/07/03 07:04:45;;;;;;;1.27;1.20;;;;;;;14.36;98.13;92651.42;1780180;78;21032;-80
2021/07/03 07:07:12;;;;;;;1.60;1.50;;;;;;;14.40;98.40;92647.20;1793990;77;21127;-82
2021/07/03 07:09:39;;;;;;;1.80;1.57;;;;;;;14.44;97.88;92654.13;1806785;77;21052;-81
2021/07/03 07:12:11;;;;;;;1.22;1.12;;;;;;;14.43;96.31;92651.20;1805778;77;21073;-81
2021/07/03 07:14:42;;;;;;;1.35;1.25;;;;;;;14.42;97.28;92648.31;1786137;76;21591;-79
2021/07/03 07:17:22;;;;;;;;;;;;;;;;;;;;;
2021/07/03 07:20:04;;;;;;;1.62;1.52;;;;;;;14.43;96.96;92650.44;1796852;76;21043;-82
2021/07/03 07:22:34;;;;;;;1.95;1.50;;;;;;;14.45;96.65;92650.17;1756713;80;21053;-81
2021/07/03 07:25:02;;;;;;;1.80;1.70;;;;;;;14.49;96.20;92645.39;1822166;76;21063;-81
2021/07/03 07:27:30;;;;;;;1.80;1.47;;;;;;;14.50;95.03;92644.17;1816672;76;21457;-83
2021/07/03 07:30:01;;;;;;;1.42;1.30;;;;;;;14.49;94.38;92646.76;1804676;77;21071;-83
2021/07/03 07:32:30;;;;;;;1.10;1.10;;;;;;;14.47;94.60;92646.39;1807158;77;21038;-80
2021/07/03 07:35:05;;;;;;;1.60;1.50;;;;;;;14.48;95.36;92653.41;1816189;77;21133;-82
2021/07/03 07:37:34;;;;;;;1.22;1.10;;;;;;;14.54;95.74;92652.27;1772424;78;21520;-83
2021/07/03 07:40:00;;;;;;;1.65;1.27;;;;;;;14.60;95.25;92653.27;1756104;78;21052;-83
2021/07/03 07:42:32;;;;;;;2.92;1.82;;;;;;;14.64;94.60;92649.05;1721922;80;21100;-83
2021/07/03 07:45:01;;;;;;;3.05;2.08;;;;;;;14.64;94.84;92645.70;1743002;80;21650;-81
2021/07/03 07:47:31;;;;;;;2.20;1.47;;;;;;;14.66;94.35;92643.28;1734902;79;21211;-81
2021/07/03 07:49:58;;;;;;;5.55;2.47;;;;;;;14.71;95.16;92641.98;1792657;78;21225;-81
2021/07/03 07:52:28;;;;;;;2.58;1.30;;;;;;;14.79;96.63;92644.66;1749380;78;22072;-83
2021/07/03 07:54:55;;;;;;;2.45;1.90;;;;;;;14.90;97.17;92640.97;1752730;80;21025;-85
2021/07/03 07:57:22;;;;;;;1.27;1.27;;;;;;;14.97;96.28;92638.00;1746926;78;21030;-85
2021/07/03 07:59:49;;;;;;;1.75;1.55;;;;;;;15.00;94.85;92640.44;1760644;79;21070;-83
2021/07/03 08:02:15;;;;;;;1.60;1.50;;;;;;;14.99;93.76;92635.56;1802481;79;21022;-83
2021/07/03 08:04:42;;;;;;;1.87;1.77;;;;;;;15.01;93.71;92639.25;1763739;80;21088;-80
2021/07/03 08:07:08;;;;;;;2.27;1.60;;;;;;;15.02;92.65;92634.69;1751778;80;22026;-80
2021/07/03 08:09:38;;;;;;;1.75;1.65;;;;;;;15.07;93.19;92636.09;1754379;80;20994;-80
2021/07/03 08:12:05;;;;;;;2.55;1.72;;;;;;;15.09;92.33;92643.89;1744566;80;21080;-82
2021/07/03 08:14:32;;;;;;;2.17;1.72;;;;;;;15.05;92.23;92638.53;1754676;80;21083;-81
2021/07/03 08:16:58;;;;;;;4.22;2.55;;;;;;;15.04;93.25;92637.77;1761878;80;21004;-83
2021/07/03 08:19:25;;;;;;;3.80;2.58;;;;;;;15.05;92.31;92637.92;1746744;79;21046;-82
2021/07/03 08:21:57;;;;;;;3.77;2.62;;;;;;;15.01;90.57;92637.27;1775836;79;21100;-81
2021/07/03 08:24:19;;;;;;;7.05;2.60;;;;;;;14.98;91.51;92631.91;1800529;78;21093;-81
2021/07/03 08:26:46;;;;;;;3.17;2.70;;;;;;;15.02;92.03;92632.56;1797033;77;21093;-82
2021/07/03 08:31:41;;;;;;;5.58;3.08;;;;;;;15.19;92.15;92638.63;1875352;76;23732;-81
2021/07/03 08:34:10;;;;;;;4.17;2.50;;;;;;;15.22;92.68;92637.75;1808066;77;21026;-80
2021/07/03 08:36:36;;;;;;;3.80;2.45;;;;;;;15.28;92.98;92642.23;1758975;80;21307;-80
2021/07/03 08:39:04;;;;;;;3.25;2.52;;;;;;;15.35;92.92;92640.47;1777744;79;21063;-80
2021/07/03 08:41:32;;;;;;;1.92;1.82;;;;;;;15.40;92.99;92639.89;1796752;79;21712;-79
2021/07/03 08:43:58;;;;;;;4.40;2.90;;;;;;;15.42;91.68;92644.30;1772097;80;21071;-80
2021/07/03 08:46:25;;;;;;;4.00;3.60;;;;;;;15.43;91.68;92640.38;1792718;78;21074;-79
2021/07/03 08:48:54;;;;;;;2.80;2.58;;;;;;;15.44;91.99;92644.03;1746023;81;21106;-80
2021/07/03 08:51:22;;;;;;;2.80;2.58;;;;;;;15.46;91.74;92641.62;1725850;81;21016;-79
2021/07/03 08:53:49;;;;;;;5.75;4.30;;;;;;;15.43;91.31;92639.00;1737448;80;21604;-80
2021/07/03 08:56:16;;;;;;;5.40;3.92;;;;;;;15.44;91.27;92641.90;1767886;78;21084;-81
2021/07/03 08:58:43;;;;;;;9.93;3.35;;;;;;;15.46;91.76;92638.13;1835691;77;21086;-78
2021/07/03 09:01:24;;;;;;;2.47;2.27;;;;;;;15.57;91.93;92643.20;1838207;76;22574;-78
2021/07/03 09:03:56;;;;;;;3.10;2.87;;;;;;;15.59;92.53;92644.91;1772013;79;21095;-78
2021/07/03 09:06:32;;;;;;;5.15;4.62;;;;;;;15.61;92.60;92646.00;1806353;77;21116;-78
2021/07/03 09:09:00;;;;;;;4.50;4.20;;;;;;;15.62;92.71;92646.16;1811482;77;21504;-79
2021/07/03 09:11:27;;;;;;;3.10;2.87;;;;;;;15.66;92.55;92639.20;1798516;78;21055;-79
2021/07/03 09:13:56;;;;;;;3.02;2.80;;;;;;;15.68;92.67;92638.92;1773706;79;20970;-80
2021/07/03 09:16:31;;;;;;;5.30;2.87;;;;;;;15.71;92.08;92633.90;1821299;77;21182;-81
2021/07/03 09:19:00;;;;;;;4.40;4.00;;;;;;;15.76;91.92;92636.70;1770262;77;21060;-80
2021/07/03 09:21:29;;;;;;;2.30;2.20;;;;;;;15.78;90.50;92633.65;1761859;78;21052;-80
2021/07/03 09:23:55;;;;;;;2.30;2.20;;;;;;;15.82;89.96;92634.89;1772852;78;21480;-79
2021/07/03 09:26:22;;;;;;;3.40;2.50;;;;;;;15.84;89.65;92634.46;1689187;80;21065;-77
2021/07/03 09:28:49;;;;;;;3.00;2.80;;;;;;;15.84;89.74;92636.59;1749247;81;21093;-80
2021/07/03 09:31:18;;;;;;;2.12;2.02;;;;;;;15.82;89.76;92630.02;1749594;79;21480;-77
2021/07/03 09:33:51;;;;;;;3.77;1.87;;;;;;;15.83;90.00;92630.92;1788641;77;21084;-78
2021/07/03 09:36:30;;;;;;;1.80;1.70;;;;;;;15.84;89.44;92631.11;1781732;77;21108;-78
2021/07/03 09:38:58;;;;;;;3.10;2.10;;;;;;;15.89;89.15;92631.13;1744700;80;22272;-77
2021/07/03 09:41:33;;;;;;;2.10;1.95;;;;;;;15.91;89.33;92630.85;1760344;80;21853;-79
2021/07/03 09:46:07;;;;;;;2.85;2.65;;;;;;;15.90;89.03;92623.06;1861530;76;22407;-77
2021/07/03 09:48:40;;;;;;;3.85;3.55;;;;;;;15.86;88.74;92626.53;1776013;77;21013;-78
2021/07/03 09:51:55;;;;;;;2.52;2.33;;;;;;;15.92;87.99;92627.50;1869084;76;22786;-78
2021/07/03 09:54:24;;;;;;;4.10;3.60;;;;;;;15.87;88.39;92629.43;1780401;76;21061;-78
2021/07/03 09:57:00;;;;;;;3.35;2.27;;;;;;;15.86;88.94;92621.05;1768084;80;21128;-80
2021/07/03 09:59:35;;;;;;;2.77;2.10;;;;;;;15.83;89.78;92628.19;1738240;80;22296;-80
2021/07/03 10:02:03;;;;;;;1.98;1.87;;;;;;;15.77;88.93;92626.64;1786252;78;21660;-79
2021/07/03 10:04:30;;;;;;;3.65;2.15;;;;;;;15.72;89.38;92630.55;1766993;79;21071;-77
2021/07/03 10:07:07;;;;;;;3.42;2.80;;;;;;;15.67;89.15;92631.14;1750841;78;21454;-78
2021/07/03 10:09:46;;;;;;;2.20;2.00;;;;;;;15.64;89.60;92636.11;1751619;79;21057;-79
2021/07/03 10:13:17;;;;;;;2.33;2.12;;;;;;;15.68;89.64;92632.66;1748362;79;22729;-83
2021/07/03 10:18:45;;;;;;;3.35;2.60;;;;;;;15.63;89.15;92634.58;1803776;77;21961;-79
2021/07/03 10:21:16;;;;;;;3.83;2.60;;;;;;;15.55;89.22;92640.92;1774392;79;21120;-78
2021/07/03 10:23:45;;;;;;;5.30;3.20;;;;;;;15.52;90.13;92644.55;1740662;80;21642;-78
2021/07/03 10:26:11;;;;;;;7.00;5.58;;;;;;;15.48;90.03;92641.16;1725418;80;21046;-78
2021/07/03 10:28:40;;;;;;;2.92;2.55;;;;;;;15.46;90.49;92643.59;1763149;80;21158;-78
2021/07/03 10:31:09;;;;;;;4.12;2.85;;;;;;;15.42;90.38;92645.09;1770043;80;21069;-83
2021/07/03 10:33:46;;;;;;;3.08;2.40;;;;;;;15.43;91.10;92647.22;1763381;79;21704;-80
2021/07/03 10:36:28;;;;;;;3.45;2.25;;;;;;;15.41;90.58;92638.67;1813160;77;21129;-81
2021/07/03 10:39:00;;;;;;;2.72;2.30;;;;;;;15.29;90.79;92649.23;1797879;77;21050;-79
2021/07/03 10:41:32;;;;;;;8.50;4.35;;;;;;;15.24;91.85;92649.80;1792809;79;21389;-81
2021/07/03 10:44:09;;;;;;;7.35;4.45;;;;;;;15.21;93.18;92647.95;1803763;78;21292;-79
2021/07/03 10:46:43;;;;;;;3.55;2.80;;;;;;;15.18;93.75;92647.45;1797319;78;21100;-80
2021/07/03 10:49:14;;;;;;;3.45;2.70;;;;;;;15.13;94.16;92645.29;1745734;79;21636;-79
2021/07/03 10:51:47;;;;;;;5.67;4.95;;;;;;;15.09;94.32;92652.86;1729968;80;21070;-78
2021/07/03 10:54:21;;;;;;;37.93;26.82;;;;;;;15.09;94.64;92650.73;1750961;79;21037;-82
2021/07/03 10:57:00;;;;;;;16.62;13.83;;;;;;;15.08;95.03;92651.92;1728131;81;21074;-80
2021/07/03 10:59:25;;;;;;;4.60;3.60;;;;;;;15.07;94.64;92655.27;1691797;83;21076;-82
2021/07/03 11:01:52;;;;;;;4.15;3.75;;;;;;;15.03;95.00;92660.85;1694940;80;21086;-82
2021/07/03 11:04:28;;;;;;;4.95;4.45;;;;;;;14.99;95.07;92660.20;1764803;79;21362;-82
2021/07/03 11:06:55;;;;;;;;;;;;;;;14.96;95.37;92657.59;1836801;77;21112;-82
2021/07/03 11:09:29;;;;;;;3.80;2.87;;;;;;;14.93;95.83;92658.46;1744559;77;20239;-81
2021/07/03 11:11:59;;;;;;;6.35;3.30;;;;;;;14.85;95.78;92657.92;1706433;80;21141;-82
2021/07/03 11:14:27;;;;;;;3.77;3.00;;;;;;;14.79;96.10;92659.09;1722384;80;21122;-80
2021/07/03 11:16:59;;;;;;;2.62;2.42;;;;;;;14.74;96.72;92666.50;1726731;78;21515;-79
2021/07/03 11:19:28;;;;;;;2.50;2.30;;;;;;;14.68;97.15;92659.28;1792568;78;21963;-80
2021/07/03 11:22:07;;;;;;;10.78;6.35;;;;;;;14.65;97.97;92663.65;1754453;80;21146;-79
2021/07/03 11:24:55;;;;;;;7.12;4.50;;;;;;;14.66;98.41;92666.54;1718371;81;22229;-81
2021/07/03 11:27:33;;;;;;;4.37;3.75;;;;;;;14.67;98.68;92671.41;1796539;77;21864;-82
2021/07/03 11:30:04;;;;;;;4.33;3.75;;;;;;;14.63;99.08;92670.75;1765280;77;21614;-81
2021/07/03 11:32:32;;;;;;;17.52;10.98;;;;;;;14.62;99.58;92667.26;1705472;81;21145;-79
2021/07/03 11:35:01;;;;;;;17.00;11.15;;;;;;;14.60;99.86;92675.16;1729201;80;21162;-79
2021/07/03 11:37:32;;;;;;;6.33;4.65;;;;;;;14.59;99.93;92670.86;1781864;79;21176;-81
2021/07/03 11:40:01;;;;;;;6.40;3.92;;;;;;;14.57;99.92;92677.39;1828042;77;21121;-82
2021/07/03 11:42:32;;;;;;;7.72;4.22;;;;;;;14.55;100.00;92677.05;1787964;77;21051;-80
2021/07/03 11:44:59;;;;;;;10.58;5.70;;;;;;;14.53;100.00;92678.10;1758421;79;21042;-79
2021/07/03 11:47:40;;;;;;;6.35;5.35;;;;;;;14.53;100.00;92678.10;1760553;78;21030;-81
2021/07/03 11:50:27;;;;;;;4.33;3.90;;;;;;;14.58;100.00;92680.28;1794725;78;20998;-83
2021/07/03 11:52:56;;;;;;;4.55;3.92;;;;;;;14.57;100.00;92684.99;1754393;79;22196;-82
2021/07/03 11:55:32;;;;;;;3.77;3.05;;;;;;;14.49;100.00;92683.69;1673402;85;21067;-84